Aérodrome :
LOGIN :

S'inscrire | Disclaimer

   EN    FR    IT 

 










Légende :    VFR   VFR Marginal   IFR   IFR Intensif   IFR Très Intensif
Visi : 
Plafond : 
>= 8 km
>= 3000ft
5 à 8 km
1000 à 3000 ft
1500m à 5 km
500 à 1000 ft
800 à 1500m
200 à 500 ft
< 800m
< 200 ft
Symboles :   Orages  Brouillard  Fortes neiges  Fortes précipitations  Vent > 20 kt
SIGMETs :   Divers  Orages  Givrage  Turbulence  Onde Orograph.  Cendres Volcan.







- Altitude de l'aérodrome : 257 ft
- Code IATA : MAN
- Voir les cartes d'approche


EGCC - Manchester

DERNIER METAR :
  • 190320Z AUTO VRB03KT 1100 R23R/P1500 DZ OVC002 07/07 Q1016 RERA NOSIG

METARs EXPIRÉS :
  • 190250Z AUTO VRB02KT 1000 R23R/P1500 -DZ OVC001 07/07 Q1016 RERA NOSIG
  • 190220Z AUTO VRB02KT 1000 R23R/P1500 RA OVC001 07/07 Q1016 REDZ NOSIG
  • 190150Z AUTO 18004KT 150V210 1200 R23R/P1500 BR OVC002 07/07 Q1016 RERA REDZ NOSIG
  • 190120Z AUTO 19004KT 150V220 1600 RADZ OVC002 07/07 Q1016 NOSIG
  • 190050Z AUTO VRB03KT 2200 DZ BKN002 OVC007 07/07 Q1017 RERA NOSIG

TAF AMD TAF EGCC
Valide du 19 à 02h jusqu'au 20 à 06h UTC


190220Z 1902/2006 18005KT 2000 -DZ BR BKN004
TEMPO 1902/1904 1200 RADZ BKN001
BECMG 1903/1906 31010KT
PROB30 1904/1912 0300 DZ FG BKN001
BECMG 1912/1915 9999 NSW BKN006
TEMPO 1915/1921 SCT010
BECMG 1921/1924 6000 BKN004
PROB30 2000/2005 0300 FG BKN001
BECMG 2004/2006 9999 FEW015
ATIS : +44 161 499 2324
Pas de NOTAMs connus pour ce terrain.



MET'MAP, la Météo Aéronautique d'un coup d'oeil ! - Copyright ORBIFLY Décembre 2007 - Disclaimer

ORBIFLY MET'MAP TEAM :

Programmation & Développement : Alexandra Zaïnal
Conception & Développement : Baudouin d'Aumeries
Co-Programmation & Développement : Marc-Olivier Méhu
Soutien technique & logistique : Manuel Goepfert

Contact : metmap@orbifly.com




SOURCES & CREDITS :

   NOAA